createdAt,value
2019-03-26T00:01:15.823Z,35.43
2019-03-26T00:04:04.748Z,28.12
2019-03-26T00:06:26.553Z,30.57
2019-03-26T00:09:00.216Z,30.57
2019-03-26T00:11:35.192Z,38.73
2019-03-26T00:14:08.894Z,21.80
2019-03-26T00:16:42.647Z,26.20
2019-03-26T00:19:17.554Z,34.20
2019-03-26T00:21:51.299Z,37.97
2019-03-26T00:24:26.467Z,30.43
2019-03-26T00:27:01.334Z,27.47
2019-03-26T00:29:35.042Z,43.57
2019-03-26T00:32:08.587Z,27.70
2019-03-26T00:34:42.176Z,29.50
2019-03-26T00:37:15.832Z,27.40
2019-03-26T00:39:49.403Z,28.93
2019-03-26T00:42:23.088Z,35.80
2019-03-26T00:44:58.889Z,23.87
2019-03-26T00:47:33.927Z,25.47
2019-03-26T00:50:08.333Z,36.60
2019-03-26T00:52:42.159Z,41.80
2019-03-26T00:55:22.403Z,35.17
2019-03-26T00:57:50.664Z,31.70
2019-03-26T01:00:41.870Z,24.33
2019-03-26T01:03:15.893Z,23.57
2019-03-26T01:05:51.057Z,31.80
2019-03-26T01:08:24.869Z,28.90
2019-03-26T01:10:58.316Z,17.53
2019-03-26T01:13:38.594Z,14.10
2019-03-26T01:16:13.073Z,16.27
2019-03-26T01:18:47.133Z,28.37
2019-03-26T01:21:20.840Z,20.60
2019-03-26T01:23:54.697Z,25.20
2019-03-26T01:26:28.322Z,24.37
2019-03-26T01:29:01.918Z,20.17
2019-03-26T01:31:35.650Z,26.10
2019-03-26T01:34:09.270Z,41.50
2019-03-26T01:36:43.037Z,27.52
2019-03-26T01:39:16.831Z,18.00
2019-03-26T01:41:51.789Z,23.20
2019-03-26T01:44:25.551Z,60.30
2019-03-26T01:46:59.129Z,28.87
2019-03-26T01:49:33.358Z,45.73
2019-03-26T01:52:07.015Z,20.68
2019-03-26T01:54:40.688Z,14.77
2019-03-26T01:57:14.510Z,17.17
2019-03-26T01:59:47.966Z,10.67
2019-03-26T02:02:23.283Z,13.90
2019-03-26T02:05:00.297Z,30.93
2019-03-26T02:07:31.945Z,19.43
2019-03-26T02:10:06.148Z,18.30
2019-03-26T02:12:40.159Z,14.83
2019-03-26T02:15:16.861Z,14.73
2019-03-26T02:17:51.462Z,16.87
2019-03-26T02:20:25.695Z,11.27
2019-03-26T02:22:59.285Z,11.63
2019-03-26T02:25:32.832Z,15.58
2019-03-26T02:28:06.413Z,10.83
2019-03-26T02:30:40.301Z,13.63
2019-03-26T02:33:13.877Z,14.87
2019-03-26T02:35:47.555Z,11.20
2019-03-26T02:38:21.603Z,16.45
2019-03-26T02:40:55.133Z,14.13
2019-03-26T02:43:31.909Z,11.83
2019-03-26T02:46:05.579Z,11.33
2019-03-26T02:48:40.832Z,9.33
2019-03-26T02:51:14.628Z,14.93
2019-03-26T02:53:48.248Z,9.13
2019-03-26T02:56:21.584Z,11.30
2019-03-26T02:58:55.582Z,9.97
2019-03-26T03:01:29.121Z,6.85
2019-03-26T03:04:02.698Z,15.07
2019-03-26T03:06:36.277Z,9.80
2019-03-26T03:09:10.161Z,11.60
2019-03-26T03:11:43.855Z,11.30
2019-03-26T03:14:17.189Z,11.73
2019-03-26T03:16:51.434Z,10.80
2019-03-26T03:19:25.159Z,10.67
2019-03-26T03:21:58.772Z,11.30
2019-03-26T03:24:32.699Z,12.60
2019-03-26T03:27:06.018Z,8.07
2019-03-26T03:29:39.717Z,7.37
2019-03-26T03:32:13.477Z,12.43
2019-03-26T03:34:47.098Z,13.97
2019-03-26T03:37:21.827Z,8.96
2019-03-26T03:39:55.418Z,10.37
2019-03-26T03:42:29.232Z,7.77
2019-03-26T03:45:02.765Z,7.92
2019-03-26T03:47:39.500Z,7.93
2019-03-26T03:50:14.987Z,8.53
2019-03-26T03:52:49.529Z,7.77
2019-03-26T03:55:23.377Z,13.67
2019-03-26T03:57:59.022Z,19.33
2019-03-26T04:00:44.202Z,10.47
2019-03-26T04:03:17.807Z,5.83
2019-03-26T04:06:07.821Z,12.53
2019-03-26T04:08:26.955Z,4.58
2019-03-26T04:11:00.734Z,5.78
2019-03-26T04:13:34.394Z,6.27
2019-03-26T04:16:09.330Z,4.67
2019-03-26T04:18:43.330Z,9.30
2019-03-26T04:21:17.276Z,8.07
2019-03-26T04:23:50.952Z,4.53
2019-03-26T04:26:24.825Z,7.13
2019-03-26T04:28:58.474Z,4.00
2019-03-26T04:31:32.325Z,5.53
2019-03-26T04:34:06.143Z,4.33
2019-03-26T04:36:40.225Z,7.73
2019-03-26T04:39:13.849Z,5.37
2019-03-26T04:41:47.518Z,5.67
2019-03-26T04:44:22.248Z,7.26
2019-03-26T04:46:57.791Z,6.53
2019-03-26T04:49:31.074Z,8.23
2019-03-26T04:52:04.780Z,5.53
2019-03-26T04:54:38.375Z,6.13
2019-03-26T04:57:12.225Z,7.53
2019-03-26T04:59:45.721Z,10.00
2019-03-26T05:02:19.620Z,8.77
2019-03-26T05:04:53.026Z,4.20
2019-03-26T05:07:27.043Z,5.03
2019-03-26T05:10:00.883Z,13.23
2019-03-26T05:12:34.752Z,10.60
2019-03-26T05:15:08.841Z,12.70
2019-03-26T05:17:42.398Z,9.97
2019-03-26T05:20:16.149Z,8.67
2019-03-26T05:22:49.697Z,7.33
2019-03-26T05:25:23.509Z,9.18
2019-03-26T05:27:57.492Z,9.93
2019-03-26T05:30:33.106Z,11.17
2019-03-26T05:33:06.316Z,13.00
2019-03-26T05:35:40.597Z,13.43
2019-03-26T05:38:18.751Z,10.47
2019-03-26T05:40:52.618Z,10.10
2019-03-26T05:43:26.477Z,9.57
2019-03-26T05:46:00.110Z,6.90
2019-03-26T05:48:33.680Z,8.20
2019-03-26T05:51:07.771Z,10.28
2019-03-26T05:53:41.565Z,8.37
2019-03-26T05:56:15.134Z,12.43
2019-03-26T05:58:52.468Z,10.13
2019-03-26T06:01:25.990Z,11.20
2019-03-26T06:04:00.828Z,13.93
2019-03-26T06:06:34.392Z,9.53
2019-03-26T06:09:09.746Z,12.37
2019-03-26T06:11:43.446Z,15.63
2019-03-26T06:14:17.041Z,9.00
2019-03-26T06:16:54.371Z,16.30
2019-03-26T06:19:29.367Z,15.80
2019-03-26T06:22:04.112Z,9.70
2019-03-26T06:24:37.714Z,10.93
2019-03-26T06:27:11.445Z,13.50
2019-03-26T06:29:46.531Z,9.63
2019-03-26T06:32:20.170Z,19.80
2019-03-26T06:34:53.936Z,16.45
2019-03-26T06:37:27.658Z,12.00
2019-03-26T06:40:01.681Z,12.53
2019-03-26T06:42:37.539Z,16.75
2019-03-26T06:45:14.749Z,18.20
2019-03-26T06:47:48.820Z,20.23
2019-03-26T06:50:23.224Z,26.57
2019-03-26T06:52:56.920Z,13.17
2019-03-26T06:55:30.640Z,10.97
2019-03-26T06:58:06.924Z,12.73
2019-03-26T07:00:40.422Z,16.20
2019-03-26T07:03:14.120Z,16.02
2019-03-26T07:05:48.421Z,15.13
2019-03-26T07:08:21.904Z,10.98
2019-03-26T07:10:56.994Z,10.43
2019-03-26T07:13:30.654Z,7.97
2019-03-26T07:16:06.006Z,7.50
2019-03-26T07:18:40.096Z,9.07
2019-03-26T07:21:13.622Z,9.50
2019-03-26T07:23:47.952Z,10.87
2019-03-26T07:26:22.542Z,10.93
2019-03-26T07:28:57.977Z,7.17
2019-03-26T07:31:34.236Z,6.25
2019-03-26T07:34:08.111Z,12.33
2019-03-26T07:36:42.377Z,6.73
2019-03-26T07:39:19.361Z,8.10
2019-03-26T07:41:53.397Z,7.70
2019-03-26T07:44:27.252Z,9.40
2019-03-26T07:47:00.618Z,10.80
2019-03-26T07:49:34.272Z,6.80
2019-03-26T07:52:08.048Z,13.50
2019-03-26T07:54:42.109Z,15.67
2019-03-26T07:57:17.369Z,9.47
2019-03-26T07:59:53.727Z,10.63
2019-03-26T08:02:29.064Z,10.68
2019-03-26T08:05:04.230Z,9.73
2019-03-26T08:07:58.452Z,9.73
2019-03-26T08:10:32.578Z,22.20
2019-03-26T08:13:06.597Z,14.50
2019-03-26T08:15:40.653Z,10.43
2019-03-26T08:18:14.210Z,10.00
2019-03-26T08:20:48.111Z,10.87
2019-03-26T08:23:21.781Z,11.00
2019-03-26T08:25:55.527Z,12.10
2019-03-26T08:28:29.040Z,9.50
2019-03-26T08:31:03.198Z,14.23
2019-03-26T08:33:38.194Z,14.23
2019-03-26T08:36:13.028Z,16.23
2019-03-26T08:38:47.302Z,9.10
2019-03-26T08:41:22.367Z,9.47
2019-03-26T08:43:56.340Z,12.00
2019-03-26T08:46:29.847Z,15.87
2019-03-26T08:49:03.841Z,14.53
2019-03-26T08:51:37.557Z,21.83
2019-03-26T08:54:11.461Z,14.90
2019-03-26T08:56:45.498Z,12.30
2019-03-26T08:59:19.162Z,20.30
2019-03-26T09:01:54.046Z,18.57
2019-03-26T09:04:28.943Z,11.00
2019-03-26T09:07:03.843Z,17.53
2019-03-26T09:09:39.816Z,16.60
2019-03-26T09:12:12.611Z,18.03
2019-03-26T09:14:46.409Z,13.27
2019-03-26T09:17:20.792Z,12.60
2019-03-26T09:19:54.531Z,13.70
2019-03-26T09:22:28.358Z,12.82
2019-03-26T09:25:08.465Z,15.35
2019-03-26T09:27:42.401Z,14.75
2019-03-26T09:30:16.688Z,14.03
2019-03-26T09:32:51.307Z,16.93
2019-03-26T09:35:24.558Z,21.50
2019-03-26T09:37:58.604Z,17.50
2019-03-26T09:40:32.256Z,17.23
2019-03-26T09:43:05.848Z,14.30
2019-03-26T09:45:41.578Z,19.43
2019-03-26T09:48:15.630Z,21.23
2019-03-26T09:50:51.301Z,16.60
2019-03-26T09:53:30.489Z,17.10
2019-03-26T09:56:02.687Z,19.17
2019-03-26T09:58:38.543Z,21.63
2019-03-26T10:01:14.571Z,18.65
2019-03-26T10:03:49.995Z,22.67
2019-03-26T10:06:24.357Z,21.47
2019-03-26T10:09:00.980Z,16.93
2019-03-26T10:11:35.064Z,20.40
2019-03-26T10:14:08.972Z,25.35
2019-03-26T10:16:42.778Z,19.03
2019-03-26T10:19:17.105Z,20.20
2019-03-26T10:21:51.285Z,17.77
2019-03-26T10:24:27.308Z,21.27
2019-03-26T10:27:01.614Z,19.63
2019-03-26T10:29:35.962Z,18.07
2019-03-26T10:32:09.772Z,22.50
2019-03-26T10:34:46.980Z,23.67
2019-03-26T10:37:21.407Z,21.70
2019-03-26T10:39:55.555Z,20.60
2019-03-26T10:42:30.623Z,15.05
2019-03-26T10:45:06.038Z,20.43
2019-03-26T10:47:41.025Z,15.77
2019-03-26T10:50:15.193Z,23.43
2019-03-26T10:52:49.821Z,22.03
2019-03-26T10:55:26.070Z,22.80
2019-03-26T10:58:02.555Z,22.47
2019-03-26T11:00:37.900Z,22.03
2019-03-26T11:03:18.652Z,17.48
2019-03-26T11:05:54.208Z,16.63
2019-03-26T11:08:31.778Z,20.97
2019-03-26T11:11:07.386Z,20.20
2019-03-26T11:13:42.341Z,17.37
2019-03-26T11:16:19.353Z,23.53
2019-03-26T11:18:54.281Z,18.97
2019-03-26T11:21:30.918Z,15.60
2019-03-26T11:24:05.417Z,18.10
2019-03-26T11:26:41.730Z,20.32
2019-03-26T11:29:18.880Z,18.00
2019-03-26T11:31:53.413Z,17.53
2019-03-26T11:34:28.702Z,24.17
2019-03-26T11:37:04.787Z,24.33
2019-03-26T11:39:40.688Z,26.27
2019-03-26T11:42:15.297Z,20.80
2019-03-26T11:44:50.603Z,19.43
2019-03-26T11:47:27.137Z,20.75
2019-03-26T11:50:05.003Z,24.27
2019-03-26T11:52:41.551Z,22.80
2019-03-26T11:55:17.083Z,27.13
2019-03-26T11:57:59.125Z,18.87
2019-03-26T12:00:34.028Z,20.25
2019-03-26T12:03:12.642Z,24.40
2019-03-26T12:05:56.899Z,24.80
2019-03-26T12:08:32.284Z,23.97
2019-03-26T12:11:07.525Z,16.37
2019-03-26T12:13:43.431Z,22.63
2019-03-26T12:16:24.708Z,18.67
2019-03-26T12:19:00.091Z,23.93
2019-03-26T12:21:39.535Z,18.30
2019-03-26T12:24:20.317Z,18.10
2019-03-26T12:26:55.628Z,18.43
2019-03-26T12:29:33.551Z,15.78
2019-03-26T12:32:11.531Z,14.77
2019-03-26T12:34:47.289Z,16.37
2019-03-26T12:37:23.219Z,15.80
2019-03-26T12:40:01.881Z,15.83
2019-03-26T12:42:38.050Z,18.80
2019-03-26T12:45:14.841Z,15.77
2019-03-26T12:47:50.219Z,24.10
2019-03-26T12:50:28.229Z,24.27
2019-03-26T12:53:03.606Z,22.02
2019-03-26T12:55:41.061Z,22.87
2019-03-26T12:58:30.633Z,25.43
2019-03-26T13:00:55.777Z,21.62
2019-03-26T13:03:32.839Z,23.12
2019-03-26T13:06:08.616Z,19.30
2019-03-26T13:08:44.526Z,25.63
2019-03-26T13:11:19.336Z,24.23
2019-03-26T13:13:56.474Z,26.87
2019-03-26T13:16:31.422Z,25.23
2019-03-26T13:19:07.015Z,21.73
2019-03-26T13:21:52.991Z,23.90
2019-03-26T13:24:28.149Z,22.70
2019-03-26T13:27:03.193Z,28.83
2019-03-26T13:29:44.452Z,26.53
2019-03-26T13:32:19.506Z,28.43
2019-03-26T13:34:56.446Z,36.13
2019-03-26T13:37:48.397Z,29.32
2019-03-26T13:40:27.543Z,25.85
2019-03-26T13:43:01.577Z,23.47
2019-03-26T13:45:45.112Z,30.33
2019-03-26T13:48:19.227Z,25.97
2019-03-26T13:50:54.487Z,34.50
2019-03-26T13:53:40.609Z,27.57
2019-03-26T13:56:22.501Z,24.67
2019-03-26T13:58:59.473Z,19.80
2019-03-26T14:01:33.827Z,23.30
2019-03-26T14:04:08.962Z,23.90
2019-03-26T14:06:45.328Z,25.67
2019-03-26T14:09:20.787Z,26.10
2019-03-26T14:11:57.725Z,26.37
2019-03-26T14:14:33.624Z,24.60
2019-03-26T14:17:15.269Z,23.40
2019-03-26T14:19:50.773Z,24.57
2019-03-26T14:22:28.850Z,32.13
2019-03-26T14:25:05.797Z,20.83
2019-03-26T14:27:41.308Z,23.32
2019-03-26T14:30:17.484Z,27.27
2019-03-26T14:32:52.991Z,18.90
2019-03-26T14:35:29.833Z,22.03
2019-03-26T14:38:05.191Z,16.37
2019-03-26T14:40:54.090Z,19.57
2019-03-26T14:43:18.278Z,14.37
2019-03-26T14:45:54.825Z,17.90
2019-03-26T14:48:29.266Z,30.32
2019-03-26T14:51:05.211Z,26.37
2019-03-26T14:53:39.787Z,34.83
2019-03-26T14:56:15.817Z,32.60
2019-03-26T14:58:53.673Z,37.50
2019-03-26T15:01:28.104Z,39.42
2019-03-26T15:04:02.058Z,35.03
2019-03-26T15:06:35.964Z,39.23
2019-03-26T15:09:11.388Z,35.00
2019-03-26T15:11:45.858Z,35.23
2019-03-26T15:14:19.601Z,33.07
2019-03-26T15:16:53.260Z,31.23
2019-03-26T15:19:28.804Z,18.20
2019-03-26T15:22:04.308Z,18.35
2019-03-26T15:24:39.512Z,16.73
2019-03-26T15:27:13.514Z,24.73
2019-03-26T15:29:47.438Z,17.62
2019-03-26T15:32:20.829Z,21.23
2019-03-26T15:34:54.600Z,22.05
2019-03-26T15:37:30.283Z,27.13
2019-03-26T15:40:04.123Z,25.13
2019-03-26T15:42:38.414Z,27.27
2019-03-26T15:45:12.769Z,38.63
2019-03-26T15:47:46.242Z,25.33
2019-03-26T15:50:40.071Z,30.83
2019-03-26T15:53:13.867Z,31.23
2019-03-26T15:55:47.830Z,23.40
2019-03-26T15:58:22.087Z,20.13
2019-03-26T16:00:57.222Z,23.13
2019-03-26T16:03:32.363Z,28.30
2019-03-26T16:06:07.751Z,29.70
2019-03-26T16:08:41.313Z,37.87
2019-03-26T16:11:15.095Z,30.63
2019-03-26T16:13:49.085Z,28.33
2019-03-26T16:16:22.922Z,29.30
2019-03-26T16:18:56.940Z,30.07
2019-03-26T16:21:30.630Z,29.30
2019-03-26T16:24:04.428Z,32.03
2019-03-26T16:26:38.185Z,25.53
2019-03-26T16:29:12.060Z,39.50
2019-03-26T16:31:45.914Z,33.08
2019-03-26T16:34:21.339Z,35.27
2019-03-26T16:36:59.842Z,26.87
2019-03-26T16:39:32.066Z,18.77
2019-03-26T16:42:05.702Z,28.33
2019-03-26T16:44:39.238Z,25.57
2019-03-26T16:47:12.827Z,33.70
2019-03-26T16:49:47.618Z,30.83
2019-03-26T16:52:21.533Z,33.10
2019-03-26T16:54:55.659Z,34.70
2019-03-26T16:57:29.740Z,34.33
2019-03-26T17:00:03.413Z,29.48
2019-03-26T17:02:37.012Z,32.57
2019-03-26T17:05:12.130Z,32.63
2019-03-26T17:07:45.753Z,32.13
2019-03-26T17:10:20.663Z,42.63
2019-03-26T17:12:54.476Z,25.45
2019-03-26T17:15:29.560Z,29.40
2019-03-26T17:18:04.571Z,28.80
2019-03-26T17:20:38.283Z,22.83
2019-03-26T17:23:11.831Z,27.73
2019-03-26T17:25:45.488Z,24.00
2019-03-26T17:28:19.646Z,21.87
2019-03-26T17:30:53.284Z,23.23
2019-03-26T17:33:28.923Z,24.47
2019-03-26T17:36:01.570Z,22.47
2019-03-26T17:38:35.163Z,28.47
2019-03-26T17:41:09.103Z,22.43
2019-03-26T17:43:42.858Z,28.07
2019-03-26T17:46:17.431Z,26.50
2019-03-26T17:48:51.249Z,26.53
2019-03-26T17:51:26.218Z,30.17
2019-03-26T17:54:00.195Z,31.07
2019-03-26T17:56:33.575Z,45.73
2019-03-26T17:59:07.128Z,29.43
2019-03-26T18:01:41.076Z,36.63
2019-03-26T18:04:14.442Z,28.37
2019-03-26T18:06:49.656Z,29.25
2019-03-26T18:09:24.573Z,30.50
2019-03-26T18:11:58.276Z,26.80
2019-03-26T18:14:31.790Z,25.10
2019-03-26T18:17:05.730Z,24.82
2019-03-26T18:19:40.828Z,23.63
2019-03-26T18:22:16.197Z,20.77
2019-03-26T18:24:50.027Z,23.80
2019-03-26T18:27:23.924Z,20.20
2019-03-26T18:29:57.473Z,22.93
2019-03-26T18:32:31.505Z,30.30
2019-03-26T18:35:04.969Z,22.63
2019-03-26T18:37:45.873Z,28.17
2019-03-26T18:40:19.513Z,24.80
2019-03-26T18:42:53.039Z,31.10
2019-03-26T18:45:28.440Z,24.37
2019-03-26T18:48:02.119Z,26.90
2019-03-26T18:50:35.888Z,35.17
2019-03-26T18:53:10.790Z,26.67
2019-03-26T18:55:44.556Z,26.67
2019-03-26T18:58:18.573Z,26.25
2019-03-26T19:00:53.719Z,30.30
2019-03-26T19:03:27.423Z,25.82
2019-03-26T19:06:01.061Z,30.20
2019-03-26T19:08:34.773Z,31.53
2019-03-26T19:11:08.280Z,24.93
2019-03-26T19:13:41.990Z,35.20
2019-03-26T19:16:15.749Z,29.37
2019-03-26T19:18:49.169Z,23.10
2019-03-26T19:21:22.735Z,26.70
2019-03-26T19:24:04.077Z,35.97
2019-03-26T19:26:32.608Z,30.43
2019-03-26T19:29:06.589Z,30.27
2019-03-26T19:31:41.405Z,34.87
2019-03-26T19:34:16.093Z,33.90
2019-03-26T19:36:52.560Z,33.60
2019-03-26T19:39:27.143Z,34.53
2019-03-26T19:42:00.993Z,39.70
2019-03-26T19:44:34.669Z,27.43
2019-03-26T19:47:08.602Z,22.10
2019-03-26T19:49:42.101Z,27.23
2019-03-26T19:52:15.959Z,30.27
2019-03-26T19:54:49.640Z,38.27
2019-03-26T19:57:22.967Z,24.80
2019-03-26T19:59:56.551Z,31.17
2019-03-26T20:02:30.262Z,29.27
2019-03-26T20:05:03.829Z,31.43
2019-03-26T20:07:38.794Z,36.53
2019-03-26T20:10:14.416Z,32.20
2019-03-26T20:12:47.919Z,34.83
2019-03-26T20:15:22.068Z,29.57
2019-03-26T20:17:55.867Z,31.83
2019-03-26T20:20:29.562Z,29.63
2019-03-26T20:23:04.754Z,30.27
2019-03-26T20:25:38.458Z,27.67
2019-03-26T20:28:12.243Z,30.00
2019-03-26T20:30:45.867Z,27.77
2019-03-26T20:33:19.249Z,31.60
2019-03-26T20:35:54.439Z,33.27
2019-03-26T20:38:28.313Z,27.98
2019-03-26T20:41:01.746Z,27.53
2019-03-26T20:43:37.553Z,36.63
2019-03-26T20:46:10.299Z,35.20
2019-03-26T20:48:43.999Z,26.27
2019-03-26T20:51:17.942Z,36.63
2019-03-26T20:53:51.487Z,29.07
2019-03-26T20:56:25.263Z,23.13
2019-03-26T20:58:59.156Z,28.60
2019-03-26T21:01:32.922Z,27.03
2019-03-26T21:04:06.726Z,25.50
2019-03-26T21:06:40.566Z,30.23
2019-03-26T21:09:14.192Z,24.47
2019-03-26T21:11:47.761Z,28.17
2019-03-26T21:14:21.310Z,32.70
2019-03-26T21:16:56.547Z,26.87
2019-03-26T21:19:30.267Z,27.80
2019-03-26T21:22:06.825Z,30.90
2019-03-26T21:24:40.539Z,27.03
2019-03-26T21:27:16.609Z,29.53
2019-03-26T21:29:50.130Z,27.20
2019-03-26T21:32:24.079Z,30.47
2019-03-26T21:34:57.869Z,30.27
2019-03-26T21:37:31.742Z,26.83
2019-03-26T21:40:07.592Z,27.17
2019-03-26T21:42:41.418Z,25.50
2019-03-26T21:45:17.528Z,24.20
2019-03-26T21:47:51.297Z,29.77
2019-03-26T21:50:25.156Z,26.02
2019-03-26T21:52:58.874Z,31.27
2019-03-26T21:55:32.417Z,26.43
2019-03-26T21:58:05.937Z,26.60
2019-03-26T22:00:39.191Z,25.83
2019-03-26T22:03:12.848Z,21.00
2019-03-26T22:05:47.936Z,22.80
2019-03-26T22:08:21.674Z,21.40
2019-03-26T22:10:55.580Z,24.27
2019-03-26T22:13:30.122Z,26.00
2019-03-26T22:16:03.680Z,29.50
2019-03-26T22:18:38.621Z,22.53
2019-03-26T22:21:31.742Z,27.43
2019-03-26T22:24:07.226Z,23.80
2019-03-26T22:26:41.179Z,35.78
2019-03-26T22:29:15.085Z,20.87
2019-03-26T22:31:48.921Z,24.92
2019-03-26T22:34:24.504Z,27.93
2019-03-26T22:36:58.591Z,23.87
2019-03-26T22:39:32.508Z,28.90
2019-03-26T22:42:06.563Z,25.57
2019-03-26T22:44:43.613Z,20.43
2019-03-26T22:47:17.041Z,23.80
2019-03-26T22:49:51.220Z,18.15
2019-03-26T22:52:26.829Z,21.77
2019-03-26T22:55:00.470Z,16.23
2019-03-26T22:57:34.164Z,14.67
2019-03-26T23:00:22.662Z,12.30
2019-03-26T23:02:56.457Z,11.47
2019-03-26T23:05:29.967Z,10.57
2019-03-26T23:08:03.556Z,12.23
2019-03-26T23:10:38.954Z,11.87
2019-03-26T23:13:14.056Z,13.83
2019-03-26T23:15:47.689Z,9.75
2019-03-26T23:18:21.499Z,11.08
2019-03-26T23:20:55.447Z,13.47
2019-03-26T23:23:28.927Z,11.00
2019-03-26T23:26:04.060Z,13.67
2019-03-26T23:28:37.381Z,10.30
2019-03-26T23:31:11.237Z,10.95
2019-03-26T23:33:45.166Z,9.50
2019-03-26T23:36:18.714Z,9.50
2019-03-26T23:38:52.316Z,18.33
2019-03-26T23:41:26.154Z,11.30
2019-03-26T23:44:01.116Z,15.03
2019-03-26T23:46:34.719Z,12.47
2019-03-26T23:49:08.224Z,19.92
2019-03-26T23:51:41.465Z,12.63
2019-03-26T23:54:17.243Z,11.63
2019-03-26T23:56:52.290Z,11.13
2019-03-26T23:59:27.573Z,19.37
